sensor_id;sensor_type;location;lat;lon;timestamp;temperature;humidity
11609;DHT22;5860;52.018;8.536;2023-03-19T00:02:07;9.20;99.90
11609;DHT22;5860;52.018;8.536;2023-03-19T00:04:44;9.20;99.90
11609;DHT22;5860;52.018;8.536;2023-03-19T00:07:13;9.20;99.90
11609;DHT22;5860;52.018;8.536;2023-03-19T00:09:40;9.20;99.90
11609;DHT22;5860;52.018;8.536;2023-03-19T00:12:09;9.20;99.90
11609;DHT22;5860;52.018;8.536;2023-03-19T00:14:36;9.20;99.90
11609;DHT22;5860;52.018;8.536;2023-03-19T00:17:03;9.30;99.90
11609;DHT22;5860;52.018;8.536;2023-03-19T00:19:30;9.40;99.90
11609;DHT22;5860;52.018;8.536;2023-03-19T00:21:57;9.40;99.90
11609;DHT22;5860;52.018;8.536;2023-03-19T00:24:26;9.40;99.90
11609;DHT22;5860;52.018;8.536;2023-03-19T00:27:02;9.40;99.90
11609;DHT22;5860;52.018;8.536;2023-03-19T00:29:30;9.60;99.90
11609;DHT22;5860;52.018;8.536;2023-03-19T00:31:57;9.60;99.90
11609;DHT22;5860;52.018;8.536;2023-03-19T00:34:24;9.60;99.90
11609;DHT22;5860;52.018;8.536;2023-03-19T00:36:51;9.50;99.90
11609;DHT22;5860;52.018;8.536;2023-03-19T00:39:18;9.60;99.90
11609;DHT22;5860;52.018;8.536;2023-03-19T00:41:47;9.60;99.90
11609;DHT22;5860;52.018;8.536;2023-03-19T00:44:16;9.60;99.90
11609;DHT22;5860;52.018;8.536;2023-03-19T00:46:46;9.60;99.90
11609;DHT22;5860;52.018;8.536;2023-03-19T00:49:13;9.60;99.90
11609;DHT22;5860;52.018;8.536;2023-03-19T00:51:40;9.40;99.90
11609;DHT22;5860;52.018;8.536;2023-03-19T00:54:11;9.50;99.90
11609;DHT22;5860;52.018;8.536;2023-03-19T00:56:38;9.50;99.90
11609;DHT22;5860;52.018;8.536;2023-03-19T00:59:05;9.40;99.90
11609;DHT22;5860;52.018;8.536;2023-03-19T01:01:32;9.50;99.90
11609;DHT22;5860;52.018;8.536;2023-03-19T01:04:00;9.40;99.90
11609;DHT22;5860;52.018;8.536;2023-03-19T01:06:27;9.30;99.90
11609;DHT22;5860;52.018;8.536;2023-03-19T01:08:54;9.20;99.90
11609;DHT22;5860;52.018;8.536;2023-03-19T01:11:21;9.00;99.90
11609;DHT22;5860;52.018;8.536;2023-03-19T01:13:48;9.00;99.90
11609;DHT22;5860;52.018;8.536;2023-03-19T01:16:14;9.10;99.90
11609;DHT22;5860;52.018;8.536;2023-03-19T01:18:41;9.10;99.90
11609;DHT22;5860;52.018;8.536;2023-03-19T01:21:08;9.00;99.90
11609;DHT22;5860;52.018;8.536;2023-03-19T01:23:36;9.00;99.90
11609;DHT22;5860;52.018;8.536;2023-03-19T01:26:03;9.00;99.90
11609;DHT22;5860;52.018;8.536;2023-03-19T01:28:30;8.90;99.90
11609;DHT22;5860;52.018;8.536;2023-03-19T01:31:04;9.00;99.90
11609;DHT22;5860;52.018;8.536;2023-03-19T01:33:31;9.00;99.90
11609;DHT22;5860;52.018;8.536;2023-03-19T01:35:59;8.90;99.90
11609;DHT22;5860;52.018;8.536;2023-03-19T01:38:30;8.90;99.90
11609;DHT22;5860;52.018;8.536;2023-03-19T01:40:57;8.80;99.90
11609;DHT22;5860;52.018;8.536;2023-03-19T01:43:26;8.80;99.90
11609;DHT22;5860;52.018;8.536;2023-03-19T01:45:58;8.90;99.90
11609;DHT22;5860;52.018;8.536;2023-03-19T01:48:38;9.00;99.90
11609;DHT22;5860;52.018;8.536;2023-03-19T01:51:09;9.00;99.90
11609;DHT22;5860;52.018;8.536;2023-03-19T01:53:38;9.00;99.90
11609;DHT22;5860;52.018;8.536;2023-03-19T01:56:31;9.10;99.90
11609;DHT22;5860;52.018;8.536;2023-03-19T02:01:57;9.20;99.90
11609;DHT22;5860;52.018;8.536;2023-03-19T02:04:25;9.20;99.90
11609;DHT22;5860;52.018;8.536;2023-03-19T02:06:56;9.30;99.90
11609;DHT22;5860;52.018;8.536;2023-03-19T02:09:24;9.10;99.90
11609;DHT22;5860;52.018;8.536;2023-03-19T02:11:53;9.30;99.90
11609;DHT22;5860;52.018;8.536;2023-03-19T02:14:21;9.40;99.90
11609;DHT22;5860;52.018;8.536;2023-03-19T02:16:52;9.30;99.90
11609;DHT22;5860;52.018;8.536;2023-03-19T02:20:15;9.40;99.90
11609;DHT22;5860;52.018;8.536;2023-03-19T02:22:19;9.30;99.90
11609;DHT22;5860;52.018;8.536;2023-03-19T02:27:17;9.50;99.90
11609;DHT22;5860;52.018;8.536;2023-03-19T02:29:44;9.30;99.90
11609;DHT22;5860;52.018;8.536;2023-03-19T02:32:11;9.30;99.90
11609;DHT22;5860;52.018;8.536;2023-03-19T02:34:40;9.30;99.90
11609;DHT22;5860;52.018;8.536;2023-03-19T02:37:13;9.20;99.90
11609;DHT22;5860;52.018;8.536;2023-03-19T02:42:16;9.20;99.90
11609;DHT22;5860;52.018;8.536;2023-03-19T02:44:45;9.30;99.90
11609;DHT22;5860;52.018;8.536;2023-03-19T02:47:12;9.30;99.90
11609;DHT22;5860;52.018;8.536;2023-03-19T02:49:39;9.20;99.90
11609;DHT22;5860;52.018;8.536;2023-03-19T02:52:06;9.20;99.90
11609;DHT22;5860;52.018;8.536;2023-03-19T02:54:36;9.20;99.90
11609;DHT22;5860;52.018;8.536;2023-03-19T02:57:04;9.10;99.90
11609;DHT22;5860;52.018;8.536;2023-03-19T02:59:31;9.10;99.90
11609;DHT22;5860;52.018;8.536;2023-03-19T03:01:58;9.10;99.90
11609;DHT22;5860;52.018;8.536;2023-03-19T03:04:25;8.90;99.90
11609;DHT22;5860;52.018;8.536;2023-03-19T03:06:52;8.90;99.90
11609;DHT22;5860;52.018;8.536;2023-03-19T03:09:19;8.90;99.90
11609;DHT22;5860;52.018;8.536;2023-03-19T03:11:47;8.90;99.90
11609;DHT22;5860;52.018;8.536;2023-03-19T03:14:14;9.00;99.90
11609;DHT22;5860;52.018;8.536;2023-03-19T03:16:44;9.00;99.90
11609;DHT22;5860;52.018;8.536;2023-03-19T03:19:11;9.10;99.90
11609;DHT22;5860;52.018;8.536;2023-03-19T03:21:39;9.00;99.90
11609;DHT22;5860;52.018;8.536;2023-03-19T03:24:09;9.00;99.90
11609;DHT22;5860;52.018;8.536;2023-03-19T03:26:50;9.00;99.90
11609;DHT22;5860;52.018;8.536;2023-03-19T03:29:17;9.00;99.90
11609;DHT22;5860;52.018;8.536;2023-03-19T03:31:44;9.00;99.90
11609;DHT22;5860;52.018;8.536;2023-03-19T03:34:11;9.10;99.90
11609;DHT22;5860;52.018;8.536;2023-03-19T03:36:38;9.10;99.90
11609;DHT22;5860;52.018;8.536;2023-03-19T03:39:08;9.10;99.90
11609;DHT22;5860;52.018;8.536;2023-03-19T03:41:37;9.20;99.90
11609;DHT22;5860;52.018;8.536;2023-03-19T03:44:04;9.20;99.90
11609;DHT22;5860;52.018;8.536;2023-03-19T03:46:31;9.20;99.90
11609;DHT22;5860;52.018;8.536;2023-03-19T03:48:58;9.10;99.90
11609;DHT22;5860;52.018;8.536;2023-03-19T03:51:25;9.20;99.90
11609;DHT22;5860;52.018;8.536;2023-03-19T03:53:52;9.20;99.90
11609;DHT22;5860;52.018;8.536;2023-03-19T03:56:19;9.20;99.90
11609;DHT22;5860;52.018;8.536;2023-03-19T03:58:46;9.10;99.90
11609;DHT22;5860;52.018;8.536;2023-03-19T04:01:14;9.10;99.90
11609;DHT22;5860;52.018;8.536;2023-03-19T04:03:43;9.10;99.90
11609;DHT22;5860;52.018;8.536;2023-03-19T04:06:14;9.10;99.90
11609;DHT22;5860;52.018;8.536;2023-03-19T04:08:42;9.00;99.90
11609;DHT22;5860;52.018;8.536;2023-03-19T04:11:09;9.00;99.90
11609;DHT22;5860;52.018;8.536;2023-03-19T04:13:36;8.90;99.90
11609;DHT22;5860;52.018;8.536;2023-03-19T04:16:07;8.90;99.90
11609;DHT22;5860;52.018;8.536;2023-03-19T04:18:35;8.90;99.90
11609;DHT22;5860;52.018;8.536;2023-03-19T04:21:06;8.80;99.90
11609;DHT22;5860;52.018;8.536;2023-03-19T04:23:33;8.70;99.90
11609;DHT22;5860;52.018;8.536;2023-03-19T04:26:02;8.70;99.90
11609;DHT22;5860;52.018;8.536;2023-03-19T04:28:29;8.50;99.90
11609;DHT22;5860;52.018;8.536;2023-03-19T04:31:05;8.50;99.90
11609;DHT22;5860;52.018;8.536;2023-03-19T04:33:32;8.40;99.90
11609;DHT22;5860;52.018;8.536;2023-03-19T04:35:59;8.40;99.90
11609;DHT22;5860;52.018;8.536;2023-03-19T04:38:26;8.40;99.90
11609;DHT22;5860;52.018;8.536;2023-03-19T04:40:55;8.40;99.90
11609;DHT22;5860;52.018;8.536;2023-03-19T04:43:22;8.30;99.90
11609;DHT22;5860;52.018;8.536;2023-03-19T04:45:49;8.30;99.90
11609;DHT22;5860;52.018;8.536;2023-03-19T04:48:16;8.40;99.90
11609;DHT22;5860;52.018;8.536;2023-03-19T04:50:44;8.20;99.90
11609;DHT22;5860;52.018;8.536;2023-03-19T04:53:12;8.20;99.90
11609;DHT22;5860;52.018;8.536;2023-03-19T04:55:39;8.20;99.90
11609;DHT22;5860;52.018;8.536;2023-03-19T04:58:06;8.20;99.90
11609;DHT22;5860;52.018;8.536;2023-03-19T05:00:35;8.10;99.90
11609;DHT22;5860;52.018;8.536;2023-03-19T05:03:02;8.10;99.90
11609;DHT22;5860;52.018;8.536;2023-03-19T05:05:29;8.10;99.90
11609;DHT22;5860;52.018;8.536;2023-03-19T05:07:56;8.10;99.90
11609;DHT22;5860;52.018;8.536;2023-03-19T05:10:23;8.00;99.90
11609;DHT22;5860;52.018;8.536;2023-03-19T05:12:50;8.00;99.90
11609;DHT22;5860;52.018;8.536;2023-03-19T05:15:17;7.90;99.90
11609;DHT22;5860;52.018;8.536;2023-03-19T05:17:44;7.90;99.90
11609;DHT22;5860;52.018;8.536;2023-03-19T05:20:11;7.90;99.90
11609;DHT22;5860;52.018;8.536;2023-03-19T05:22:38;7.80;99.90
11609;DHT22;5860;52.018;8.536;2023-03-19T05:25:05;7.70;99.90
11609;DHT22;5860;52.018;8.536;2023-03-19T05:27:32;7.70;99.90
11609;DHT22;5860;52.018;8.536;2023-03-19T05:29:59;7.60;99.90
11609;DHT22;5860;52.018;8.536;2023-03-19T05:32:50;7.70;99.90
11609;DHT22;5860;52.018;8.536;2023-03-19T05:35:17;7.60;99.90
11609;DHT22;5860;52.018;8.536;2023-03-19T05:38:08;7.60;99.90
11609;DHT22;5860;52.018;8.536;2023-03-19T05:40:36;7.40;99.90
11609;DHT22;5860;52.018;8.536;2023-03-19T05:43:07;7.50;99.90
11609;DHT22;5860;52.018;8.536;2023-03-19T05:45:50;7.50;99.90
11609;DHT22;5860;52.018;8.536;2023-03-19T05:48:23;7.50;99.90
11609;DHT22;5860;52.018;8.536;2023-03-19T05:50:50;7.50;99.90
11609;DHT22;5860;52.018;8.536;2023-03-19T05:53:18;7.50;99.90
11609;DHT22;5860;52.018;8.536;2023-03-19T05:55:46;7.60;99.90
11609;DHT22;5860;52.018;8.536;2023-03-19T05:58:18;7.60;99.90
11609;DHT22;5860;52.018;8.536;2023-03-19T06:00:47;7.60;99.90
11609;DHT22;5860;52.018;8.536;2023-03-19T06:03:14;7.70;99.90
11609;DHT22;5860;52.018;8.536;2023-03-19T06:05:42;7.70;99.90
11609;DHT22;5860;52.018;8.536;2023-03-19T06:08:09;7.80;99.90
11609;DHT22;5860;52.018;8.536;2023-03-19T06:10:35;7.90;99.90
11609;DHT22;5860;52.018;8.536;2023-03-19T06:13:02;8.00;99.90
11609;DHT22;5860;52.018;8.536;2023-03-19T06:15:31;8.10;99.90
11609;DHT22;5860;52.018;8.536;2023-03-19T06:18:01;8.20;99.90
11609;DHT22;5860;52.018;8.536;2023-03-19T06:20:28;8.30;99.90
11609;DHT22;5860;52.018;8.536;2023-03-19T06:22:55;8.40;99.90
11609;DHT22;5860;52.018;8.536;2023-03-19T06:25:32;8.50;99.90
11609;DHT22;5860;52.018;8.536;2023-03-19T06:28:00;8.60;99.90
11609;DHT22;5860;52.018;8.536;2023-03-19T06:30:27;8.60;99.90
11609;DHT22;5860;52.018;8.536;2023-03-19T06:32:54;8.80;99.90
11609;DHT22;5860;52.018;8.536;2023-03-19T06:35:22;8.90;99.90
11609;DHT22;5860;52.018;8.536;2023-03-19T06:37:49;10.50;99.90
11609;DHT22;5860;52.018;8.536;2023-03-19T06:40:16;13.40;99.90
11609;DHT22;5860;52.018;8.536;2023-03-19T06:42:45;16.00;99.90
11609;DHT22;5860;52.018;8.536;2023-03-19T06:45:15;18.40;99.90
11609;DHT22;5860;52.018;8.536;2023-03-19T06:47:45;20.10;99.90
11609;DHT22;5860;52.018;8.536;2023-03-19T06:50:14;20.90;99.90
11609;DHT22;5860;52.018;8.536;2023-03-19T06:52:42;21.40;99.90
11609;DHT22;5860;52.018;8.536;2023-03-19T06:55:10;19.00;99.90
11609;DHT22;5860;52.018;8.536;2023-03-19T06:57:38;16.30;99.90
11609;DHT22;5860;52.018;8.536;2023-03-19T07:00:06;14.70;99.90
11609;DHT22;5860;52.018;8.536;2023-03-19T07:02:36;13.90;99.90
11609;DHT22;5860;52.018;8.536;2023-03-19T07:05:03;13.70;99.90
11609;DHT22;5860;52.018;8.536;2023-03-19T07:07:31;13.60;99.90
11609;DHT22;5860;52.018;8.536;2023-03-19T07:09:58;13.30;99.90
11609;DHT22;5860;52.018;8.536;2023-03-19T07:12:25;13.10;99.90
11609;DHT22;5860;52.018;8.536;2023-03-19T07:14:55;13.10;99.90
11609;DHT22;5860;52.018;8.536;2023-03-19T07:17:22;12.90;99.90
11609;DHT22;5860;52.018;8.536;2023-03-19T07:19:50;12.70;99.90
11609;DHT22;5860;52.018;8.536;2023-03-19T07:22:17;12.60;99.90
11609;DHT22;5860;52.018;8.536;2023-03-19T07:24:44;12.50;99.90
11609;DHT22;5860;52.018;8.536;2023-03-19T07:27:11;12.50;99.90
11609;DHT22;5860;52.018;8.536;2023-03-19T07:29:38;12.60;99.90
11609;DHT22;5860;52.018;8.536;2023-03-19T07:32:05;12.60;99.90
11609;DHT22;5860;52.018;8.536;2023-03-19T07:34:33;12.80;99.90
11609;DHT22;5860;52.018;8.536;2023-03-19T07:37:00;12.80;99.90
11609;DHT22;5860;52.018;8.536;2023-03-19T07:39:27;12.70;99.90
11609;DHT22;5860;52.018;8.536;2023-03-19T07:41:54;12.80;99.90
11609;DHT22;5860;52.018;8.536;2023-03-19T07:44:24;12.90;99.90
11609;DHT22;5860;52.018;8.536;2023-03-19T07:46:51;13.20;99.90
11609;DHT22;5860;52.018;8.536;2023-03-19T07:49:18;13.50;99.90
11609;DHT22;5860;52.018;8.536;2023-03-19T07:51:45;13.70;99.90
11609;DHT22;5860;52.018;8.536;2023-03-19T07:54:12;13.60;99.90
11609;DHT22;5860;52.018;8.536;2023-03-19T07:56:40;13.70;99.90
11609;DHT22;5860;52.018;8.536;2023-03-19T07:59:08;13.70;99.90
11609;DHT22;5860;52.018;8.536;2023-03-19T08:01:35;13.60;99.90
11609;DHT22;5860;52.018;8.536;2023-03-19T08:04:02;13.30;99.90
11609;DHT22;5860;52.018;8.536;2023-03-19T08:06:29;13.10;99.90
11609;DHT22;5860;52.018;8.536;2023-03-19T08:08:56;12.90;99.90
11609;DHT22;5860;52.018;8.536;2023-03-19T08:11:23;12.80;99.90
11609;DHT22;5860;52.018;8.536;2023-03-19T08:13:50;12.90;99.90
11609;DHT22;5860;52.018;8.536;2023-03-19T08:16:18;13.10;99.90
11609;DHT22;5860;52.018;8.536;2023-03-19T08:18:44;13.10;99.90
11609;DHT22;5860;52.018;8.536;2023-03-19T08:21:31;13.00;99.90
11609;DHT22;5860;52.018;8.536;2023-03-19T08:24:36;13.10;99.90
11609;DHT22;5860;52.018;8.536;2023-03-19T08:27:11;13.40;99.90
11609;DHT22;5860;52.018;8.536;2023-03-19T08:29:39;13.50;99.90
11609;DHT22;5860;52.018;8.536;2023-03-19T08:32:28;13.40;99.90
11609;DHT22;5860;52.018;8.536;2023-03-19T08:35:04;13.50;99.90
11609;DHT22;5860;52.018;8.536;2023-03-19T08:37:34;13.70;99.90
11609;DHT22;5860;52.018;8.536;2023-03-19T08:40:01;13.50;99.90
11609;DHT22;5860;52.018;8.536;2023-03-19T08:42:29;13.70;99.90
11609;DHT22;5860;52.018;8.536;2023-03-19T08:44:56;13.30;99.90
11609;DHT22;5860;52.018;8.536;2023-03-19T08:47:23;13.50;99.90
11609;DHT22;5860;52.018;8.536;2023-03-19T08:54:02;13.40;99.90
11609;DHT22;5860;52.018;8.536;2023-03-19T08:56:29;13.70;99.90
11609;DHT22;5860;52.018;8.536;2023-03-19T08:58:56;13.70;99.90
11609;DHT22;5860;52.018;8.536;2023-03-19T09:01:23;13.60;99.90
11609;DHT22;5860;52.018;8.536;2023-03-19T09:03:50;13.70;99.90
11609;DHT22;5860;52.018;8.536;2023-03-19T09:06:17;13.80;99.90
11609;DHT22;5860;52.018;8.536;2023-03-19T09:08:44;13.80;99.90
11609;DHT22;5860;52.018;8.536;2023-03-19T09:11:12;13.80;99.90
11609;DHT22;5860;52.018;8.536;2023-03-19T09:13:40;13.70;99.90
11609;DHT22;5860;52.018;8.536;2023-03-19T09:16:07;13.80;99.90
11609;DHT22;5860;52.018;8.536;2023-03-19T09:18:34;13.80;99.90
11609;DHT22;5860;52.018;8.536;2023-03-19T09:21:02;13.90;99.90
11609;DHT22;5860;52.018;8.536;2023-03-19T09:23:29;13.80;99.90
11609;DHT22;5860;52.018;8.536;2023-03-19T09:25:56;13.80;99.90
11609;DHT22;5860;52.018;8.536;2023-03-19T09:28:26;13.80;99.90
11609;DHT22;5860;52.018;8.536;2023-03-19T09:30:52;13.90;99.90
11609;DHT22;5860;52.018;8.536;2023-03-19T09:33:20;13.80;99.90
11609;DHT22;5860;52.018;8.536;2023-03-19T09:35:51;13.90;99.90
11609;DHT22;5860;52.018;8.536;2023-03-19T09:38:20;14.10;99.90
11609;DHT22;5860;52.018;8.536;2023-03-19T09:41:07;14.10;99.90
11609;DHT22;5860;52.018;8.536;2023-03-19T09:49:20;14.20;99.90
11609;DHT22;5860;52.018;8.536;2023-03-19T09:51:52;14.30;99.90
11609;DHT22;5860;52.018;8.536;2023-03-19T09:54:38;14.00;99.90
11609;DHT22;5860;52.018;8.536;2023-03-19T09:57:09;14.00;99.90
11609;DHT22;5860;52.018;8.536;2023-03-19T09:59:40;14.10;99.90
11609;DHT22;5860;52.018;8.536;2023-03-19T10:04:48;14.50;99.90
11609;DHT22;5860;52.018;8.536;2023-03-19T10:10:33;14.40;99.90
11609;DHT22;5860;52.018;8.536;2023-03-19T10:15:44;14.20;99.90
11609;DHT22;5860;52.018;8.536;2023-03-19T10:18:17;14.50;99.90
11609;DHT22;5860;52.018;8.536;2023-03-19T10:20:57;14.40;99.90
11609;DHT22;5860;52.018;8.536;2023-03-19T10:25:57;14.10;99.90
11609;DHT22;5860;52.018;8.536;2023-03-19T10:28:27;14.30;99.90
11609;DHT22;5860;52.018;8.536;2023-03-19T10:30:56;14.20;99.90
11609;DHT22;5860;52.018;8.536;2023-03-19T10:33:42;14.30;99.90
11609;DHT22;5860;52.018;8.536;2023-03-19T10:36:11;14.40;99.90
11609;DHT22;5860;52.018;8.536;2023-03-19T10:38:42;14.50;99.90
11609;DHT22;5860;52.018;8.536;2023-03-19T10:43:55;14.70;99.90
11609;DHT22;5860;52.018;8.536;2023-03-19T10:46:24;14.60;99.90
11609;DHT22;5860;52.018;8.536;2023-03-19T10:48:51;14.70;99.90
11609;DHT22;5860;52.018;8.536;2023-03-19T10:51:22;14.70;99.90
11609;DHT22;5860;52.018;8.536;2023-03-19T10:53:52;14.50;99.90
11609;DHT22;5860;52.018;8.536;2023-03-19T10:56:22;14.30;99.90
11609;DHT22;5860;52.018;8.536;2023-03-19T10:59:03;14.30;99.90
11609;DHT22;5860;52.018;8.536;2023-03-19T11:01:38;14.20;99.90
11609;DHT22;5860;52.018;8.536;2023-03-19T11:04:19;14.30;99.90
11609;DHT22;5860;52.018;8.536;2023-03-19T11:06:50;14.40;99.90
11609;DHT22;5860;52.018;8.536;2023-03-19T11:11:59;14.50;99.90
11609;DHT22;5860;52.018;8.536;2023-03-19T11:14:37;14.30;99.90
11609;DHT22;5860;52.018;8.536;2023-03-19T11:22:54;14.70;99.90
11609;DHT22;5860;52.018;8.536;2023-03-19T11:28:01;14.50;99.90
11609;DHT22;5860;52.018;8.536;2023-03-19T11:30:37;14.60;99.90
11609;DHT22;5860;52.018;8.536;2023-03-19T11:47:32;14.20;99.90
11609;DHT22;5860;52.018;8.536;2023-03-19T11:53:12;14.50;99.90
11609;DHT22;5860;52.018;8.536;2023-03-19T11:55:47;14.50;99.90
11609;DHT22;5860;52.018;8.536;2023-03-19T12:00:53;15.00;99.90
11609;DHT22;5860;52.018;8.536;2023-03-19T12:14:36;14.70;99.90
11609;DHT22;5860;52.018;8.536;2023-03-19T12:17:45;14.70;99.90
11609;DHT22;5860;52.018;8.536;2023-03-19T12:23:02;14.20;99.90
11609;DHT22;5860;52.018;8.536;2023-03-19T12:28:22;14.10;99.90
11609;DHT22;5860;52.018;8.536;2023-03-19T12:33:35;14.10;99.90
11609;DHT22;5860;52.018;8.536;2023-03-19T12:36:11;14.10;99.90
11609;DHT22;5860;52.018;8.536;2023-03-19T12:38:48;14.10;99.90
11609;DHT22;5860;52.018;8.536;2023-03-19T12:41:24;14.10;99.90
11609;DHT22;5860;52.018;8.536;2023-03-19T12:46:56;14.30;99.90
11609;DHT22;5860;52.018;8.536;2023-03-19T12:55:02;14.30;99.90
11609;DHT22;5860;52.018;8.536;2023-03-19T13:03:37;14.60;99.90
11609;DHT22;5860;52.018;8.536;2023-03-19T13:06:15;14.50;99.90
11609;DHT22;5860;52.018;8.536;2023-03-19T13:09:03;14.70;99.90
11609;DHT22;5860;52.018;8.536;2023-03-19T13:17:05;15.50;99.90
11609;DHT22;5860;52.018;8.536;2023-03-19T13:22:55;15.70;99.90
11609;DHT22;5860;52.018;8.536;2023-03-19T13:25:40;15.50;99.90
11609;DHT22;5860;52.018;8.536;2023-03-19T13:28:17;15.20;99.90
11609;DHT22;5860;52.018;8.536;2023-03-19T13:30:59;15.20;99.90
11609;DHT22;5860;52.018;8.536;2023-03-19T13:33:27;15.10;99.90
11609;DHT22;5860;52.018;8.536;2023-03-19T13:35:55;15.00;99.90
11609;DHT22;5860;52.018;8.536;2023-03-19T13:38:27;15.00;99.90
11609;DHT22;5860;52.018;8.536;2023-03-19T13:40:58;15.00;99.90
11609;DHT22;5860;52.018;8.536;2023-03-19T13:54:43;15.70;99.90
11609;DHT22;5860;52.018;8.536;2023-03-19T14:00:58;15.40;99.90
11609;DHT22;5860;52.018;8.536;2023-03-19T14:07:18;15.60;99.90
11609;DHT22;5860;52.018;8.536;2023-03-19T14:12:35;15.20;99.90
11609;DHT22;5860;52.018;8.536;2023-03-19T14:28:19;14.80;99.90
11609;DHT22;5860;52.018;8.536;2023-03-19T14:30:48;14.80;99.90
11609;DHT22;5860;52.018;8.536;2023-03-19T14:33:46;14.90;99.90
11609;DHT22;5860;52.018;8.536;2023-03-19T14:36:17;15.00;99.90
11609;DHT22;5860;52.018;8.536;2023-03-19T14:39:01;15.00;99.90
11609;DHT22;5860;52.018;8.536;2023-03-19T14:41:32;15.00;99.90
11609;DHT22;5860;52.018;8.536;2023-03-19T14:46:49;15.20;99.90
11609;DHT22;5860;52.018;8.536;2023-03-19T14:49:49;15.10;99.90
11609;DHT22;5860;52.018;8.536;2023-03-19T14:52:35;15.10;99.90
11609;DHT22;5860;52.018;8.536;2023-03-19T14:55:12;15.10;99.90
11609;DHT22;5860;52.018;8.536;2023-03-19T14:57:39;15.10;99.90
11609;DHT22;5860;52.018;8.536;2023-03-19T15:00:14;15.00;99.90
11609;DHT22;5860;52.018;8.536;2023-03-19T15:02:45;15.10;99.90
11609;DHT22;5860;52.018;8.536;2023-03-19T15:07:49;15.00;99.90
11609;DHT22;5860;52.018;8.536;2023-03-19T15:10:21;14.90;99.90
11609;DHT22;5860;52.018;8.536;2023-03-19T15:13:12;15.00;99.90
11609;DHT22;5860;52.018;8.536;2023-03-19T15:18:38;15.00;99.90
11609;DHT22;5860;52.018;8.536;2023-03-19T15:21:05;15.00;99.90
11609;DHT22;5860;52.018;8.536;2023-03-19T15:23:32;14.20;99.90
11609;DHT22;5860;52.018;8.536;2023-03-19T15:26:01;13.90;99.90
11609;DHT22;5860;52.018;8.536;2023-03-19T15:28:31;13.70;99.90
11609;DHT22;5860;52.018;8.536;2023-03-19T15:31:05;13.70;99.90
11609;DHT22;5860;52.018;8.536;2023-03-19T15:33:52;13.60;99.90
11609;DHT22;5860;52.018;8.536;2023-03-19T15:36:27;13.60;99.90
11609;DHT22;5860;52.018;8.536;2023-03-19T15:39:06;13.40;99.90
11609;DHT22;5860;52.018;8.536;2023-03-19T15:41:38;13.30;99.90
11609;DHT22;5860;52.018;8.536;2023-03-19T15:44:11;13.30;99.90
11609;DHT22;5860;52.018;8.536;2023-03-19T15:46:39;13.20;99.90
11609;DHT22;5860;52.018;8.536;2023-03-19T15:51:46;12.90;99.90
11609;DHT22;5860;52.018;8.536;2023-03-19T15:54:17;13.00;99.90
11609;DHT22;5860;52.018;8.536;2023-03-19T15:56:48;13.00;99.90
11609;DHT22;5860;52.018;8.536;2023-03-19T15:59:17;13.10;99.90
11609;DHT22;5860;52.018;8.536;2023-03-19T16:01:46;13.10;99.90
11609;DHT22;5860;52.018;8.536;2023-03-19T16:04:20;13.20;99.90
11609;DHT22;5860;52.018;8.536;2023-03-19T16:06:49;13.20;99.90
11609;DHT22;5860;52.018;8.536;2023-03-19T16:11:56;13.20;99.90
11609;DHT22;5860;52.018;8.536;2023-03-19T16:14:24;13.20;99.90
11609;DHT22;5860;52.018;8.536;2023-03-19T16:17:02;13.20;99.90
11609;DHT22;5860;52.018;8.536;2023-03-19T16:19:37;13.20;99.90
11609;DHT22;5860;52.018;8.536;2023-03-19T16:22:14;13.20;99.90
11609;DHT22;5860;52.018;8.536;2023-03-19T16:24:43;13.20;99.90
11609;DHT22;5860;52.018;8.536;2023-03-19T16:27:14;13.20;99.90
11609;DHT22;5860;52.018;8.536;2023-03-19T16:29:47;13.10;99.90
11609;DHT22;5860;52.018;8.536;2023-03-19T16:32:31;13.10;99.90
11609;DHT22;5860;52.018;8.536;2023-03-19T16:35:24;13.00;99.90
11609;DHT22;5860;52.018;8.536;2023-03-19T16:37:53;13.00;99.90
11609;DHT22;5860;52.018;8.536;2023-03-19T16:42:51;12.90;99.90
11609;DHT22;5860;52.018;8.536;2023-03-19T16:45:28;12.80;99.90
11609;DHT22;5860;52.018;8.536;2023-03-19T16:47:59;12.80;99.90
11609;DHT22;5860;52.018;8.536;2023-03-19T16:50:30;12.80;99.90
11609;DHT22;5860;52.018;8.536;2023-03-19T16:52:58;12.80;99.90
11609;DHT22;5860;52.018;8.536;2023-03-19T16:55:29;12.80;99.90
11609;DHT22;5860;52.018;8.536;2023-03-19T16:58:19;12.70;99.90
11609;DHT22;5860;52.018;8.536;2023-03-19T17:00:47;12.70;99.90
11609;DHT22;5860;52.018;8.536;2023-03-19T17:03:16;12.70;99.90
11609;DHT22;5860;52.018;8.536;2023-03-19T17:05:44;12.70;99.90
11609;DHT22;5860;52.018;8.536;2023-03-19T17:08:11;12.70;99.90
11609;DHT22;5860;52.018;8.536;2023-03-19T17:10:42;12.70;99.90
11609;DHT22;5860;52.018;8.536;2023-03-19T17:13:26;12.60;99.90
11609;DHT22;5860;52.018;8.536;2023-03-19T17:16:03;12.60;99.90
11609;DHT22;5860;52.018;8.536;2023-03-19T17:18:37;12.50;99.90
11609;DHT22;5860;52.018;8.536;2023-03-19T17:21:17;12.50;99.90
11609;DHT22;5860;52.018;8.536;2023-03-19T17:23:47;12.40;99.90
11609;DHT22;5860;52.018;8.536;2023-03-19T17:26:23;12.40;99.90
11609;DHT22;5860;52.018;8.536;2023-03-19T17:28:54;12.40;99.90
11609;DHT22;5860;52.018;8.536;2023-03-19T17:31:28;12.40;99.90
11609;DHT22;5860;52.018;8.536;2023-03-19T17:36:26;12.30;99.90
11609;DHT22;5860;52.018;8.536;2023-03-19T17:38:54;12.20;99.90
11609;DHT22;5860;52.018;8.536;2023-03-19T17:41:21;12.10;99.90
11609;DHT22;5860;52.018;8.536;2023-03-19T17:43:48;12.00;99.90
11609;DHT22;5860;52.018;8.536;2023-03-19T17:46:24;12.00;99.90
11609;DHT22;5860;52.018;8.536;2023-03-19T17:48:52;11.90;99.90
11609;DHT22;5860;52.018;8.536;2023-03-19T17:51:22;11.90;99.90
11609;DHT22;5860;52.018;8.536;2023-03-19T17:53:51;12.00;99.90
11609;DHT22;5860;52.018;8.536;2023-03-19T17:56:20;11.90;99.90
11609;DHT22;5860;52.018;8.536;2023-03-19T17:58:50;11.90;99.90
11609;DHT22;5860;52.018;8.536;2023-03-19T18:01:23;11.80;99.90
11609;DHT22;5860;52.018;8.536;2023-03-19T18:03:51;11.80;99.90
11609;DHT22;5860;52.018;8.536;2023-03-19T18:06:24;11.80;99.90
11609;DHT22;5860;52.018;8.536;2023-03-19T18:08:51;11.80;99.90
11609;DHT22;5860;52.018;8.536;2023-03-19T18:11:18;11.80;99.90
11609;DHT22;5860;52.018;8.536;2023-03-19T18:13:45;11.80;99.90
11609;DHT22;5860;52.018;8.536;2023-03-19T18:16:29;11.70;99.90
11609;DHT22;5860;52.018;8.536;2023-03-19T18:19:00;11.60;99.90
11609;DHT22;5860;52.018;8.536;2023-03-19T18:21:29;11.50;99.90
11609;DHT22;5860;52.018;8.536;2023-03-19T18:23:56;11.50;99.90
11609;DHT22;5860;52.018;8.536;2023-03-19T18:26:24;11.60;99.90
11609;DHT22;5860;52.018;8.536;2023-03-19T18:28:51;11.60;99.90
11609;DHT22;5860;52.018;8.536;2023-03-19T18:31:23;11.70;99.90
11609;DHT22;5860;52.018;8.536;2023-03-19T18:33:58;11.80;99.90
11609;DHT22;5860;52.018;8.536;2023-03-19T18:36:29;11.80;99.90
11609;DHT22;5860;52.018;8.536;2023-03-19T18:38:57;11.90;99.90
11609;DHT22;5860;52.018;8.536;2023-03-19T18:41:26;11.80;99.90
11609;DHT22;5860;52.018;8.536;2023-03-19T18:43:54;11.90;99.90
11609;DHT22;5860;52.018;8.536;2023-03-19T18:46:25;11.90;99.90
11609;DHT22;5860;52.018;8.536;2023-03-19T18:48:56;11.90;99.90
11609;DHT22;5860;52.018;8.536;2023-03-19T18:51:27;11.90;99.90
11609;DHT22;5860;52.018;8.536;2023-03-19T18:53:54;11.90;99.90